createdAt,value
2023-03-26T00:00:28.911Z,1008.74
2023-03-26T00:01:28.907Z,1008.68
2023-03-26T00:02:29.019Z,1008.74
2023-03-26T00:03:28.932Z,1008.75
2023-03-26T00:04:28.935Z,1008.71
2023-03-26T00:05:28.979Z,1008.78
2023-03-26T00:06:29.028Z,1008.73
2023-03-26T00:07:28.908Z,1008.72
2023-03-26T00:08:28.921Z,1008.72
2023-03-26T00:09:28.929Z,1008.73
2023-03-26T00:10:28.952Z,1008.76
2023-03-26T00:11:28.927Z,1008.79
2023-03-26T00:12:28.907Z,1008.8
2023-03-26T00:13:28.921Z,1008.75
2023-03-26T00:14:28.929Z,1008.77
2023-03-26T00:15:28.907Z,1008.79
2023-03-26T00:16:28.955Z,1008.79
2023-03-26T00:17:28.920Z,1008.84
2023-03-26T00:18:28.909Z,1008.8
2023-03-26T00:19:28.932Z,1008.81
2023-03-26T00:20:28.913Z,1008.81
2023-03-26T00:21:29.125Z,1008.86
2023-03-26T00:22:28.909Z,1008.77
2023-03-26T00:23:28.915Z,1008.8
2023-03-26T00:24:28.937Z,1008.75
2023-03-26T00:25:28.934Z,1008.78
2023-03-26T00:26:28.915Z,1008.77
2023-03-26T00:27:28.916Z,1008.99
2023-03-26T00:28:28.915Z,1008.84
2023-03-26T00:29:28.930Z,1008.91
2023-03-26T00:30:28.936Z,1008.84
2023-03-26T00:31:28.925Z,1008.93
2023-03-26T00:32:28.927Z,1008.8
2023-03-26T00:33:28.920Z,1008.91
2023-03-26T00:34:28.936Z,1008.89
2023-03-26T00:35:28.921Z,1009.01
2023-03-26T00:36:28.940Z,1008.94
2023-03-26T00:37:28.922Z,1008.92
2023-03-26T00:38:28.921Z,1008.91
2023-03-26T00:39:28.930Z,1008.94
2023-03-26T00:40:28.920Z,1008.76
2023-03-26T00:41:28.915Z,1008.82
2023-03-26T00:42:28.927Z,1008.76
2023-03-26T00:43:28.923Z,1008.82
2023-03-26T00:44:28.964Z,1008.82
2023-03-26T00:45:28.923Z,1008.79
2023-03-26T00:46:28.953Z,1008.81
2023-03-26T00:47:28.949Z,1008.78
2023-03-26T00:48:42.224Z,1008.79
2023-03-26T00:49:28.942Z,1008.82
2023-03-26T00:50:28.919Z,1008.66
2023-03-26T00:51:28.919Z,1008.76
2023-03-26T00:52:28.917Z,1008.71
2023-03-26T00:53:28.916Z,1008.79
2023-03-26T00:54:28.942Z,1008.8
2023-03-26T00:55:28.924Z,1008.72
2023-03-26T00:56:28.917Z,1008.75
2023-03-26T00:57:35.564Z,1008.78
2023-03-26T00:58:28.926Z,1008.77
2023-03-26T00:59:28.939Z,1008.89
2023-03-26T01:00:28.924Z,1008.77
2023-03-26T01:01:29.368Z,1008.65
2023-03-26T01:02:28.997Z,1008.69
2023-03-26T01:03:29.001Z,1008.74
2023-03-26T01:04:29.129Z,1008.72
2023-03-26T01:05:28.917Z,1008.79
2023-03-26T01:06:28.905Z,1008.6
2023-03-26T01:07:28.958Z,1008.7
2023-03-26T01:08:28.916Z,1008.7
2023-03-26T01:09:28.930Z,1008.73
2023-03-26T01:10:28.911Z,1008.78
2023-03-26T01:11:28.922Z,1008.75
2023-03-26T01:12:28.927Z,1008.69
2023-03-26T01:13:28.907Z,1008.68
2023-03-26T01:14:28.936Z,1008.71
2023-03-26T01:15:28.944Z,1008.66
2023-03-26T01:16:28.925Z,1008.69
2023-03-26T01:17:28.926Z,1008.65
2023-03-26T01:18:28.915Z,1008.72
2023-03-26T01:19:28.933Z,1008.65
2023-03-26T01:20:28.917Z,1008.72
2023-03-26T01:21:28.934Z,1008.73
2023-03-26T01:22:28.921Z,1008.7
2023-03-26T01:23:28.933Z,1008.76
2023-03-26T01:24:28.943Z,1008.7
2023-03-26T01:25:28.916Z,1008.73
2023-03-26T01:26:28.927Z,1008.74
2023-03-26T01:27:28.934Z,1008.75
2023-03-26T01:28:28.922Z,1008.75
2023-03-26T01:29:28.941Z,1008.7
2023-03-26T01:30:28.902Z,1008.76
2023-03-26T01:31:28.915Z,1008.73
2023-03-26T01:32:28.976Z,1008.73
2023-03-26T01:33:29.046Z,1008.68
2023-03-26T01:34:28.934Z,1008.7
2023-03-26T01:35:28.931Z,1008.64
2023-03-26T01:36:28.925Z,1008.65
2023-03-26T01:37:28.917Z,1008.74
2023-03-26T01:38:28.927Z,1008.69
2023-03-26T01:39:28.929Z,1008.72
2023-03-26T01:40:28.915Z,1008.66
2023-03-26T01:41:28.919Z,1008.68
2023-03-26T01:42:28.925Z,1008.59
2023-03-26T01:43:28.927Z,1008.69
2023-03-26T01:44:28.935Z,1008.71
2023-03-26T01:45:28.910Z,1008.73
2023-03-26T01:46:28.944Z,1008.7
2023-03-26T01:47:28.963Z,1008.72
2023-03-26T01:48:28.916Z,1008.73
2023-03-26T01:49:28.920Z,1008.69
2023-03-26T01:50:28.917Z,1008.65
2023-03-26T01:51:28.923Z,1008.66
2023-03-26T01:52:28.910Z,1008.65
2023-03-26T01:53:28.934Z,1008.73
2023-03-26T01:54:28.924Z,1008.55
2023-03-26T01:55:28.925Z,1008.66
2023-03-26T01:56:28.903Z,1008.64
2023-03-26T01:57:28.904Z,1008.68
2023-03-26T01:58:28.917Z,1008.57
2023-03-26T01:59:28.926Z,1008.61
2023-03-26T02:00:28.894Z,1008.56
2023-03-26T02:01:28.989Z,1008.58
2023-03-26T02:02:29.057Z,1008.58
2023-03-26T02:03:28.983Z,1008.58
2023-03-26T02:04:28.928Z,1008.48
2023-03-26T02:05:28.911Z,1008.62
2023-03-26T02:06:28.910Z,1008.59
2023-03-26T02:07:28.913Z,1008.51
2023-03-26T02:08:28.909Z,1008.52
2023-03-26T02:09:28.935Z,1008.46
2023-03-26T02:10:28.906Z,1008.53
2023-03-26T02:11:35.417Z,1008.52
2023-03-26T02:12:28.914Z,1008.58
2023-03-26T02:13:28.914Z,1008.57
2023-03-26T02:14:28.927Z,1008.59
2023-03-26T02:15:28.906Z,1008.52
2023-03-26T02:16:28.958Z,1008.54
2023-03-26T02:17:28.938Z,1008.49
2023-03-26T02:18:28.898Z,1008.49
2023-03-26T02:19:28.925Z,1008.53
2023-03-26T02:20:28.913Z,1008.6
2023-03-26T02:21:28.918Z,1008.58
2023-03-26T02:22:28.920Z,1008.49
2023-03-26T02:23:28.915Z,1008.48
2023-03-26T02:24:28.932Z,1008.55
2023-03-26T02:25:28.906Z,1008.59
2023-03-26T02:26:28.906Z,1008.52
2023-03-26T02:27:28.908Z,1008.49
2023-03-26T02:28:28.907Z,1008.51
2023-03-26T02:29:28.924Z,1008.54
2023-03-26T02:30:28.903Z,1008.64
2023-03-26T02:31:28.950Z,1008.64
2023-03-26T02:32:29.358Z,1008.61
2023-03-26T02:33:28.910Z,1008.62
2023-03-26T02:34:28.925Z,1008.58
2023-03-26T02:35:28.967Z,1008.65
2023-03-26T02:36:29.006Z,1008.72
2023-03-26T02:37:28.905Z,1008.7
2023-03-26T02:38:28.914Z,1008.68
2023-03-26T02:39:28.919Z,1008.71
2023-03-26T02:40:28.909Z,1008.78
2023-03-26T02:41:28.916Z,1008.83
2023-03-26T02:42:28.910Z,1008.5
2023-03-26T02:43:28.912Z,1008.57
2023-03-26T02:44:28.920Z,1008.69
2023-03-26T02:45:28.937Z,1008.78
2023-03-26T02:46:28.927Z,1008.71
2023-03-26T02:47:28.962Z,1008.68
2023-03-26T02:48:28.909Z,1008.66
2023-03-26T02:49:28.933Z,1008.8
2023-03-26T02:50:28.920Z,1008.66
2023-03-26T02:51:28.923Z,1008.7
2023-03-26T02:52:28.901Z,1008.72
2023-03-26T02:53:28.916Z,1008.66
2023-03-26T02:54:28.922Z,1008.77
2023-03-26T02:55:28.900Z,1008.72
2023-03-26T02:56:28.936Z,1008.66
2023-03-26T02:57:28.906Z,1008.72
2023-03-26T02:58:28.913Z,1008.68
2023-03-26T02:59:28.918Z,1008.74
2023-03-26T03:00:28.914Z,1008.68
2023-03-26T03:01:28.972Z,1008.66
2023-03-26T03:02:29.054Z,1008.68
2023-03-26T03:03:28.956Z,1008.69
2023-03-26T03:04:28.943Z,1008.68
2023-03-26T03:05:28.990Z,1008.73
2023-03-26T03:06:28.910Z,1008.72
2023-03-26T03:07:28.905Z,1008.73
2023-03-26T03:08:28.901Z,1008.74
2023-03-26T03:09:28.923Z,1008.8
2023-03-26T03:10:28.910Z,1008.74
2023-03-26T03:11:28.902Z,1008.72
2023-03-26T03:12:28.903Z,1008.77
2023-03-26T03:13:28.910Z,1008.72
2023-03-26T03:14:28.927Z,1008.64
2023-03-26T03:15:28.899Z,1008.62
2023-03-26T03:16:28.918Z,1008.72
2023-03-26T03:17:28.950Z,1008.68
2023-03-26T03:18:28.915Z,1008.62
2023-03-26T03:19:28.928Z,1008.73
2023-03-26T03:20:28.907Z,1008.69
2023-03-26T03:21:28.917Z,1008.77
2023-03-26T03:22:28.906Z,1008.71
2023-03-26T03:23:28.898Z,1008.69
2023-03-26T03:24:28.915Z,1008.64
2023-03-26T03:25:28.913Z,1008.73
2023-03-26T03:26:28.914Z,1008.7
2023-03-26T03:27:28.909Z,1008.61
2023-03-26T03:28:28.911Z,1008.75
2023-03-26T03:29:28.924Z,1008.74
2023-03-26T03:30:28.910Z,1008.76
2023-03-26T03:31:29.009Z,1008.76
2023-03-26T03:32:28.919Z,1008.76
2023-03-26T03:33:28.907Z,1008.81
2023-03-26T03:34:28.923Z,1008.77
2023-03-26T03:35:28.939Z,1008.7
2023-03-26T03:36:28.905Z,1008.82
2023-03-26T03:37:28.911Z,1008.83
2023-03-26T03:38:28.909Z,1008.86
2023-03-26T03:39:28.931Z,1008.81
2023-03-26T03:40:28.917Z,1008.88
2023-03-26T03:41:28.913Z,1008.86
2023-03-26T03:42:28.925Z,1008.86
2023-03-26T03:43:28.917Z,1008.91
2023-03-26T03:44:28.928Z,1008.87
2023-03-26T03:45:28.920Z,1008.89
2023-03-26T03:46:28.965Z,1008.94
2023-03-26T03:47:28.932Z,1008.88
2023-03-26T03:48:28.907Z,1008.89
2023-03-26T03:49:28.924Z,1008.92
2023-03-26T03:50:28.911Z,1008.92
2023-03-26T03:51:28.934Z,1008.86
2023-03-26T03:52:28.925Z,1008.79
2023-03-26T03:53:28.921Z,1008.89
2023-03-26T03:54:28.929Z,1008.87
2023-03-26T03:55:28.919Z,1008.88
2023-03-26T03:56:28.910Z,1008.93
2023-03-26T03:57:28.911Z,1008.85
2023-03-26T03:58:28.932Z,1008.83
2023-03-26T03:59:28.929Z,1008.77
2023-03-26T04:00:28.893Z,1008.78
2023-03-26T04:01:28.914Z,1008.82
2023-03-26T04:02:28.953Z,1008.81
2023-03-26T04:03:33.434Z,1008.79
2023-03-26T04:04:28.954Z,1008.8
2023-03-26T04:05:28.916Z,1008.78
2023-03-26T04:06:28.919Z,1008.8
2023-03-26T04:07:28.908Z,1008.79
2023-03-26T04:08:28.910Z,1008.79
2023-03-26T04:09:28.937Z,1008.81
2023-03-26T04:10:28.904Z,1008.85
2023-03-26T04:11:28.912Z,1008.85
2023-03-26T04:12:28.916Z,1008.85
2023-03-26T04:13:28.915Z,1008.87
2023-03-26T04:14:28.927Z,1008.85
2023-03-26T04:15:28.913Z,1008.84
2023-03-26T04:16:28.961Z,1008.8
2023-03-26T04:17:28.933Z,1008.88
2023-03-26T04:18:28.906Z,1008.87
2023-03-26T04:19:28.923Z,1008.85
2023-03-26T04:20:28.908Z,1008.86
2023-03-26T04:21:28.908Z,1008.96
2023-03-26T04:22:28.901Z,1008.93
2023-03-26T04:23:28.917Z,1009.04
2023-03-26T04:24:28.929Z,1008.91
2023-03-26T04:25:28.928Z,1008.96
2023-03-26T04:26:28.910Z,1008.89
2023-03-26T04:27:28.909Z,1008.94
2023-03-26T04:28:28.918Z,1008.89
2023-03-26T04:29:28.943Z,1008.96
2023-03-26T04:30:28.908Z,1009.03
2023-03-26T04:31:29.021Z,1009
2023-03-26T04:32:28.933Z,1009.03
2023-03-26T04:33:28.918Z,1009
2023-03-26T04:34:28.935Z,1008.99
2023-03-26T04:35:28.923Z,1008.99
2023-03-26T04:36:28.911Z,1009.06
2023-03-26T04:37:28.917Z,1009
2023-03-26T04:38:28.921Z,1009.03
2023-03-26T04:39:28.938Z,1009.01
2023-03-26T04:40:28.897Z,1009.06
2023-03-26T04:41:28.921Z,1008.97
2023-03-26T04:42:28.907Z,1009
2023-03-26T04:43:28.914Z,1008.98
2023-03-26T04:44:28.930Z,1008.91
2023-03-26T04:45:28.914Z,1008.97
2023-03-26T04:46:28.940Z,1008.96
2023-03-26T04:47:28.983Z,1008.97
2023-03-26T04:48:28.912Z,1008.91
2023-03-26T04:49:28.945Z,1008.98
2023-03-26T04:50:28.919Z,1008.87
2023-03-26T04:51:28.912Z,1008.89
2023-03-26T04:52:28.909Z,1008.89
2023-03-26T04:53:28.925Z,1008.92
2023-03-26T04:54:28.924Z,1008.93
2023-03-26T04:55:28.916Z,1008.91
2023-03-26T04:56:28.925Z,1008.94
2023-03-26T04:57:28.908Z,1008.97
2023-03-26T04:58:28.902Z,1008.89
2023-03-26T04:59:28.925Z,1008.97
2023-03-26T05:00:28.907Z,1008.96
2023-03-26T05:01:28.928Z,1008.97
2023-03-26T05:02:28.940Z,1008.89
2023-03-26T05:03:28.910Z,1009.01
2023-03-26T05:04:29.128Z,1008.92
2023-03-26T05:05:28.928Z,1008.96
2023-03-26T05:06:28.903Z,1008.91
2023-03-26T05:07:28.922Z,1008.91
2023-03-26T05:08:28.922Z,1008.91
2023-03-26T05:09:28.927Z,1008.89
2023-03-26T05:10:28.907Z,1008.85
2023-03-26T05:11:28.906Z,1008.85
2023-03-26T05:12:28.911Z,1008.87
2023-03-26T05:13:28.911Z,1008.86
2023-03-26T05:14:28.921Z,1008.89
2023-03-26T05:15:28.910Z,1008.85
2023-03-26T05:16:28.918Z,1008.88
2023-03-26T05:17:28.948Z,1008.83
2023-03-26T05:18:28.956Z,1008.84
2023-03-26T05:19:28.917Z,1008.8
2023-03-26T05:20:28.908Z,1008.81
2023-03-26T05:21:28.912Z,1008.86
2023-03-26T05:22:28.904Z,1008.86
2023-03-26T05:23:28.912Z,1008.85
2023-03-26T05:24:28.923Z,1008.82
2023-03-26T05:25:28.909Z,1008.84
2023-03-26T05:26:28.910Z,1008.79
2023-03-26T05:27:28.905Z,1008.8
2023-03-26T05:28:28.898Z,1008.81
2023-03-26T05:29:28.912Z,1008.82
2023-03-26T05:30:28.912Z,1008.81
2023-03-26T05:31:28.906Z,1008.77
2023-03-26T05:32:29.017Z,1008.85
2023-03-26T05:33:29.029Z,1008.83
2023-03-26T05:34:28.926Z,1008.79
2023-03-26T05:35:28.936Z,1008.81
2023-03-26T05:36:28.906Z,1008.85
2023-03-26T05:37:28.912Z,1008.82
2023-03-26T05:38:28.922Z,1008.82
2023-03-26T05:39:28.918Z,1008.86
2023-03-26T05:40:28.900Z,1008.79
2023-03-26T05:41:28.902Z,1008.81
2023-03-26T05:42:28.900Z,1008.79
2023-03-26T05:43:28.927Z,1008.76
2023-03-26T05:44:28.922Z,1008.76
2023-03-26T05:45:28.904Z,1008.74
2023-03-26T05:46:28.904Z,1008.84
2023-03-26T05:47:28.958Z,1008.77
2023-03-26T05:48:28.910Z,1008.76
2023-03-26T05:49:28.927Z,1008.81
2023-03-26T05:50:28.899Z,1008.82
2023-03-26T05:51:28.906Z,1008.81
2023-03-26T05:52:28.922Z,1008.77
2023-03-26T05:53:28.915Z,1008.78
2023-03-26T05:54:28.929Z,1008.79
2023-03-26T05:55:28.923Z,1008.78
2023-03-26T05:56:28.911Z,1008.8
2023-03-26T05:57:28.923Z,1008.78
2023-03-26T05:58:28.914Z,1008.81
2023-03-26T05:59:28.924Z,1008.78
2023-03-26T06:00:28.930Z,1008.81
2023-03-26T06:01:28.902Z,1008.81
2023-03-26T06:02:28.909Z,1008.78
2023-03-26T06:03:29.038Z,1008.81
2023-03-26T06:04:28.983Z,1008.76
2023-03-26T06:05:28.909Z,1008.81
2023-03-26T06:06:28.909Z,1008.77
2023-03-26T06:07:28.909Z,1008.87
2023-03-26T06:08:28.929Z,1008.87
2023-03-26T06:09:28.922Z,1008.85
2023-03-26T06:10:28.895Z,1008.82
2023-03-26T06:11:28.921Z,1008.86
2023-03-26T06:12:28.910Z,1008.8
2023-03-26T06:13:28.926Z,1008.88
2023-03-26T06:14:28.921Z,1008.85
2023-03-26T06:15:28.938Z,1008.84
2023-03-26T06:16:28.955Z,1008.88
2023-03-26T06:17:29.000Z,1008.86
2023-03-26T06:18:28.939Z,1008.88
2023-03-26T06:19:28.919Z,1008.93
2023-03-26T06:20:28.888Z,1008.92
2023-03-26T06:21:28.920Z,1008.91
2023-03-26T06:22:28.909Z,1008.87
2023-03-26T06:23:28.908Z,1008.95
2023-03-26T06:24:28.930Z,1008.89
2023-03-26T06:25:28.913Z,1008.96
2023-03-26T06:26:28.910Z,1009
2023-03-26T06:27:28.914Z,1008.92
2023-03-26T06:28:28.905Z,1008.93
2023-03-26T06:29:28.921Z,1008.93
2023-03-26T06:30:28.910Z,1008.92
2023-03-26T06:31:28.947Z,1008.94
2023-03-26T06:32:28.982Z,1008.97
2023-03-26T06:33:28.915Z,1008.85
2023-03-26T06:34:28.922Z,1008.87
2023-03-26T06:35:28.907Z,1008.83
2023-03-26T06:36:28.914Z,1008.86
2023-03-26T06:37:28.905Z,1008.82
2023-03-26T06:38:28.918Z,1008.8
2023-03-26T06:39:28.924Z,1008.79
2023-03-26T06:40:28.936Z,1008.83
2023-03-26T06:41:28.922Z,1008.84
2023-03-26T06:43:07.063Z,1008.81
2023-03-26T06:43:28.906Z,1008.83
2023-03-26T06:44:28.918Z,1008.83
2023-03-26T06:45:28.912Z,1008.8
2023-03-26T06:46:28.952Z,1008.83
2023-03-26T06:47:28.977Z,1008.87
2023-03-26T06:48:28.911Z,1008.8
2023-03-26T06:49:28.924Z,1008.75
2023-03-26T06:50:28.900Z,1008.79
2023-03-26T06:51:28.928Z,1008.8
2023-03-26T06:52:28.914Z,1008.77
2023-03-26T06:53:28.902Z,1008.76
2023-03-26T06:54:28.932Z,1008.77
2023-03-26T06:55:28.924Z,1008.76
2023-03-26T06:56:28.921Z,1008.8
2023-03-26T06:57:28.921Z,1008.83
2023-03-26T06:58:28.910Z,1008.81
2023-03-26T06:59:28.930Z,1008.85
2023-03-26T07:00:28.906Z,1008.78
2023-03-26T07:01:29.016Z,1008.81
2023-03-26T07:02:28.922Z,1008.75
2023-03-26T07:03:28.915Z,1008.83
2023-03-26T07:04:29.004Z,1008.83
2023-03-26T07:05:28.918Z,1008.79
2023-03-26T07:06:28.905Z,1008.81
2023-03-26T07:07:28.919Z,1008.83
2023-03-26T07:08:28.920Z,1008.83
2023-03-26T07:09:28.934Z,1008.79
2023-03-26T07:10:28.905Z,1008.8
2023-03-26T07:11:28.920Z,1008.78
2023-03-26T07:12:28.915Z,1008.81
2023-03-26T07:13:28.921Z,1008.78
2023-03-26T07:14:28.932Z,1008.79
2023-03-26T07:15:28.971Z,1008.81
2023-03-26T07:16:28.946Z,1008.78
2023-03-26T07:17:28.942Z,1008.81
2023-03-26T07:18:29.192Z,1008.78
2023-03-26T07:19:28.936Z,1008.82
2023-03-26T07:20:28.932Z,1008.82
2023-03-26T07:21:28.911Z,1008.78
2023-03-26T07:22:28.915Z,1008.82
2023-03-26T07:23:28.913Z,1008.84
2023-03-26T07:24:28.932Z,1008.8
2023-03-26T07:25:28.909Z,1008.79
2023-03-26T07:26:28.917Z,1008.83
2023-03-26T07:27:28.908Z,1008.82
2023-03-26T07:28:28.919Z,1008.82
2023-03-26T07:29:28.925Z,1008.8
2023-03-26T07:30:28.943Z,1008.85
2023-03-26T07:31:28.940Z,1008.78
2023-03-26T07:32:28.952Z,1008.8
2023-03-26T07:33:28.917Z,1008.8
2023-03-26T07:34:28.925Z,1008.72
2023-03-26T07:35:28.929Z,1008.77
2023-03-26T07:36:28.913Z,1008.73
2023-03-26T07:37:28.918Z,1008.65
2023-03-26T07:38:28.908Z,1008.69
2023-03-26T07:39:28.923Z,1008.74
2023-03-26T07:40:28.906Z,1008.7
2023-03-26T07:41:28.919Z,1008.63
2023-03-26T07:42:28.913Z,1008.7
2023-03-26T07:43:28.905Z,1008.68
2023-03-26T07:44:28.927Z,1008.65
2023-03-26T07:45:28.966Z,1008.64
2023-03-26T07:46:28.914Z,1008.64
2023-03-26T07:47:28.973Z,1008.65
2023-03-26T07:48:28.916Z,1008.63
2023-03-26T07:49:28.931Z,1008.64
2023-03-26T07:50:28.915Z,1008.65
2023-03-26T07:51:28.918Z,1008.63
2023-03-26T07:52:28.930Z,1008.64
2023-03-26T07:53:28.925Z,1008.65
2023-03-26T07:54:28.928Z,1008.62
2023-03-26T07:55:28.908Z,1008.64
2023-03-26T07:56:28.970Z,1008.68
2023-03-26T07:57:28.956Z,1008.65
2023-03-26T07:58:28.909Z,1008.63
2023-03-26T07:59:28.951Z,1008.63
2023-03-26T08:00:28.910Z,1008.64
2023-03-26T08:01:28.909Z,1008.62
2023-03-26T08:02:28.952Z,1008.66
2023-03-26T08:03:29.096Z,1008.65
2023-03-26T08:04:29.195Z,1008.65
2023-03-26T08:05:28.917Z,1008.63
2023-03-26T08:06:28.908Z,1008.58
2023-03-26T08:07:28.913Z,1008.65
2023-03-26T08:08:28.908Z,1008.65
2023-03-26T08:09:28.926Z,1008.64
2023-03-26T08:10:28.918Z,1008.65
2023-03-26T08:11:28.904Z,1008.65
2023-03-26T08:12:28.913Z,1008.61
2023-03-26T08:13:28.906Z,1008.65
2023-03-26T08:14:28.921Z,1008.64
2023-03-26T08:15:28.919Z,1008.61
2023-03-26T08:16:28.918Z,1008.62
2023-03-26T08:17:31.113Z,1008.61
2023-03-26T08:18:28.908Z,1008.6
2023-03-26T08:19:28.925Z,1008.57
2023-03-26T08:20:28.916Z,1008.53
2023-03-26T08:21:28.909Z,1008.52
2023-03-26T08:22:28.913Z,1008.51
2023-03-26T08:23:28.910Z,1008.51
2023-03-26T08:24:28.923Z,1008.47
2023-03-26T08:25:28.914Z,1008.47
2023-03-26T08:26:28.917Z,1008.46
2023-03-26T08:27:28.914Z,1008.45
2023-03-26T08:28:28.912Z,1008.38
2023-03-26T08:29:28.972Z,1008.36
2023-03-26T08:30:28.901Z,1008.41
2023-03-26T08:31:28.941Z,1008.35
2023-03-26T08:32:28.932Z,1008.34
2023-03-26T08:33:28.915Z,1008.34
2023-03-26T08:34:28.920Z,1008.35
2023-03-26T08:35:28.928Z,1008.31
2023-03-26T08:36:28.919Z,1008.29
2023-03-26T08:37:28.922Z,1008.28
2023-03-26T08:38:28.903Z,1008.27
2023-03-26T08:39:28.922Z,1008.31
2023-03-26T08:40:28.900Z,1008.33
2023-03-26T08:41:28.913Z,1008.37
2023-03-26T08:42:28.907Z,1008.36
2023-03-26T08:43:28.908Z,1008.35
2023-03-26T08:44:28.921Z,1008.34
2023-03-26T08:45:28.919Z,1008.34
2023-03-26T08:46:28.913Z,1008.35
2023-03-26T08:47:28.943Z,1008.34
2023-03-26T08:48:28.929Z,1008.32
2023-03-26T08:49:29.754Z,1008.43
2023-03-26T08:50:28.917Z,1008.37
2023-03-26T08:51:28.911Z,1008.33
2023-03-26T08:52:28.905Z,1008.36
2023-03-26T08:53:28.915Z,1008.28
2023-03-26T08:54:28.925Z,1008.32
2023-03-26T08:55:28.905Z,1008.29
2023-03-26T08:56:28.917Z,1008.26
2023-03-26T08:57:28.904Z,1008.33
2023-03-26T08:58:28.907Z,1008.35
2023-03-26T08:59:28.955Z,1008.35
2023-03-26T09:00:28.898Z,1008.41
2023-03-26T09:01:28.927Z,1008.39
2023-03-26T09:02:28.952Z,1008.37
2023-03-26T09:03:28.919Z,1008.4
2023-03-26T09:04:28.930Z,1008.39
2023-03-26T09:05:28.911Z,1008.37
2023-03-26T09:06:28.909Z,1008.45
2023-03-26T09:07:28.906Z,1008.35
2023-03-26T09:08:30.160Z,1008.35
2023-03-26T09:09:28.918Z,1008.35
2023-03-26T09:10:28.910Z,1008.4
2023-03-26T09:11:28.898Z,1008.42
2023-03-26T09:12:28.909Z,1008.39
2023-03-26T09:13:28.909Z,1008.36
2023-03-26T09:14:28.917Z,1008.35
2023-03-26T09:15:28.907Z,1008.31
2023-03-26T09:16:28.981Z,1008.34
2023-03-26T09:17:28.939Z,1008.31
2023-03-26T09:18:28.922Z,1008.3
2023-03-26T09:19:28.922Z,1008.26
2023-03-26T09:20:28.898Z,1008.19
2023-03-26T09:21:28.935Z,1008.17
2023-03-26T09:22:28.918Z,1008.11
2023-03-26T09:23:28.925Z,1008.13
2023-03-26T09:24:28.934Z,1008.08
2023-03-26T09:25:28.927Z,1008.08
2023-03-26T09:26:28.914Z,1008.03
2023-03-26T09:27:28.906Z,1007.99
2023-03-26T09:28:28.914Z,1007.98
2023-03-26T09:29:30.457Z,1007.92
2023-03-26T09:30:28.912Z,1008
2023-03-26T09:31:28.945Z,1007.88
2023-03-26T09:32:28.955Z,1007.9
2023-03-26T09:33:28.911Z,1007.85
2023-03-26T09:34:28.926Z,1007.84
2023-03-26T09:35:28.961Z,1007.83
2023-03-26T09:36:28.904Z,1007.8
2023-03-26T09:37:28.921Z,1007.71
2023-03-26T09:38:28.924Z,1007.76
2023-03-26T09:39:28.948Z,1007.79
2023-03-26T09:40:28.896Z,1007.78
2023-03-26T09:41:28.906Z,1007.77
2023-03-26T09:42:28.907Z,1007.72
2023-03-26T09:43:28.908Z,1007.69
2023-03-26T09:44:28.932Z,1007.69
2023-03-26T09:45:28.916Z,1007.69
2023-03-26T09:46:28.925Z,1007.75
2023-03-26T09:47:28.951Z,1007.73
2023-03-26T09:48:28.915Z,1007.69
2023-03-26T09:49:28.926Z,1007.69
2023-03-26T09:50:28.899Z,1007.69
2023-03-26T09:51:28.912Z,1007.68
2023-03-26T09:52:28.913Z,1007.65
2023-03-26T09:53:28.908Z,1007.64
2023-03-26T09:54:28.927Z,1007.66
2023-03-26T09:55:28.911Z,1007.7
2023-03-26T09:56:28.909Z,1007.62
2023-03-26T09:57:28.946Z,1007.71
2023-03-26T09:58:28.913Z,1007.69
2023-03-26T09:59:28.929Z,1007.7
2023-03-26T10:00:28.911Z,1007.76
2023-03-26T10:01:28.924Z,1007.67
2023-03-26T10:02:46.719Z,1007.71
2023-03-26T10:03:28.949Z,1007.64
2023-03-26T10:04:28.976Z,1007.59
2023-03-26T10:05:28.915Z,1007.64
2023-03-26T10:06:28.930Z,1007.62
2023-03-26T10:07:28.911Z,1007.59
2023-03-26T10:08:31.626Z,1007.59
2023-03-26T10:09:28.930Z,1007.47
2023-03-26T10:10:28.921Z,1007.48
2023-03-26T10:11:28.924Z,1007.48
2023-03-26T10:12:28.916Z,1007.45
2023-03-26T10:13:28.906Z,1007.46
2023-03-26T10:14:28.936Z,1007.46
2023-03-26T10:15:28.923Z,1007.43
2023-03-26T10:16:28.954Z,1007.49
2023-03-26T10:17:28.947Z,1007.53
2023-03-26T10:18:30.143Z,1007.54
2023-03-26T10:19:28.932Z,1007.52
2023-03-26T10:20:28.928Z,1007.49
2023-03-26T10:21:28.914Z,1007.47
2023-03-26T10:22:28.921Z,1007.44
2023-03-26T10:23:28.914Z,1007.48
2023-03-26T10:24:28.941Z,1007.5
2023-03-26T10:25:28.964Z,1007.46
2023-03-26T10:26:28.908Z,1007.47
2023-03-26T10:27:28.909Z,1007.48
2023-03-26T10:28:28.926Z,1007.46
2023-03-26T10:29:28.925Z,1007.46
2023-03-26T10:30:28.956Z,1007.44
2023-03-26T10:31:28.931Z,1007.46
2023-03-26T10:32:28.962Z,1007.49
2023-03-26T10:33:28.911Z,1007.31
2023-03-26T10:34:29.749Z,1007.53
2023-03-26T10:35:29.008Z,1007.44
2023-03-26T10:36:28.912Z,1007.38
2023-03-26T10:37:28.909Z,1007.36
2023-03-26T10:38:28.897Z,1007.36
2023-03-26T10:39:36.518Z,1007.34
2023-03-26T10:40:28.895Z,1007.35
2023-03-26T10:41:28.904Z,1007.39
2023-03-26T10:42:28.927Z,1007.39
2023-03-26T10:43:28.910Z,1007.4
2023-03-26T10:44:28.927Z,1007.38
2023-03-26T10:45:28.941Z,1007.34
2023-03-26T10:46:28.984Z,1007.36
2023-03-26T10:47:28.948Z,1007.3
2023-03-26T10:48:28.920Z,1007.31
2023-03-26T10:49:28.925Z,1007.23
2023-03-26T10:50:28.897Z,1007.29
2023-03-26T10:51:28.921Z,1007.24
2023-03-26T10:52:28.905Z,1007.2
2023-03-26T10:53:28.910Z,1007.24
2023-03-26T10:54:28.920Z,1007.17
2023-03-26T10:55:28.948Z,1007.12
2023-03-26T10:56:28.907Z,1007.09
2023-03-26T10:57:28.902Z,1007.17
2023-03-26T10:58:28.941Z,1007.1
2023-03-26T10:59:28.932Z,1007.14
2023-03-26T11:00:28.921Z,1007.09
2023-03-26T11:01:28.970Z,1007.05
2023-03-26T11:02:30.034Z,1007.11
2023-03-26T11:03:28.899Z,1007.06
2023-03-26T11:04:28.930Z,1007.06
2023-03-26T11:05:29.031Z,1006.96
2023-03-26T11:06:28.925Z,1006.93
2023-03-26T11:07:28.910Z,1006.92
2023-03-26T11:08:31.318Z,1006.92
2023-03-26T11:09:28.940Z,1006.87
2023-03-26T11:10:28.912Z,1006.82
2023-03-26T11:11:28.912Z,1006.82
2023-03-26T11:12:28.907Z,1006.77
2023-03-26T11:13:28.916Z,1006.71
2023-03-26T11:14:34.807Z,1006.72
2023-03-26T11:15:28.936Z,1006.66
2023-03-26T11:16:28.914Z,1006.65
2023-03-26T11:17:40.050Z,1006.59
2023-03-26T11:18:28.953Z,1006.52
2023-03-26T11:19:28.936Z,1006.49
2023-03-26T11:20:28.920Z,1006.52
2023-03-26T11:21:28.908Z,1006.47
2023-03-26T11:22:28.910Z,1006.52
2023-03-26T11:23:28.913Z,1006.5
2023-03-26T11:24:28.928Z,1006.51
2023-03-26T11:25:28.912Z,1006.44
2023-03-26T11:26:28.923Z,1006.34
2023-03-26T11:27:28.912Z,1006.38
2023-03-26T11:28:28.912Z,1006.33
2023-03-26T11:29:32.729Z,1006.36
2023-03-26T11:30:28.916Z,1006.32
2023-03-26T11:31:29.024Z,1006.31
2023-03-26T11:32:28.971Z,1006.28
2023-03-26T11:33:32.841Z,1006.23
2023-03-26T11:34:28.934Z,1006.22
2023-03-26T11:35:39.511Z,1006.21
2023-03-26T11:36:28.991Z,1006.23
2023-03-26T11:37:28.914Z,1006.13
2023-03-26T11:38:28.961Z,1006.12
2023-03-26T11:39:28.931Z,1006.09
2023-03-26T11:40:28.906Z,1006.17
2023-03-26T11:41:28.933Z,1006.21
2023-03-26T11:42:28.921Z,1006.2
2023-03-26T11:43:28.915Z,1006.16
2023-03-26T11:44:28.925Z,1006.21
2023-03-26T11:45:28.911Z,1006.21
2023-03-26T11:46:28.960Z,1006.14
2023-03-26T11:47:28.928Z,1006.14
2023-03-26T11:48:28.915Z,1006.1
2023-03-26T11:49:28.977Z,1006.08
2023-03-26T11:50:28.919Z,1006.15
2023-03-26T11:51:28.923Z,1006.1
2023-03-26T11:52:28.925Z,1006.08
2023-03-26T11:53:28.923Z,1005.99
2023-03-26T11:54:28.937Z,1006.08
2023-03-26T11:55:28.930Z,1006.04
2023-03-26T11:56:28.911Z,1006.05
2023-03-26T11:57:28.980Z,1005.99
2023-03-26T11:58:28.907Z,1006.06
2023-03-26T11:59:28.926Z,1006.04
2023-03-26T12:00:28.919Z,1006.03
2023-03-26T12:01:28.910Z,1006.02
2023-03-26T12:02:29.207Z,1006.02
2023-03-26T12:03:28.906Z,1006.06
2023-03-26T12:04:31.420Z,1006.06
2023-03-26T12:05:28.910Z,1006.05
2023-03-26T12:06:28.936Z,1006.02
2023-03-26T12:07:28.906Z,1006.06
2023-03-26T12:08:28.903Z,1006.05